SQP1715 LUKK-LBBG
Flight info
| Callsign | SQP1715 |
|---|---|
| Flight time | 0h 50m |
| Altitude | 36000 |
| Route | LIPTA T34 KODRU DCT RIPGA/N0458F370 DCT NENKO DCT RUTAR |
| Aircraft | B738/M-VGD/A |
Departure
| Time | 2026-04-30 13:59 |
|---|---|
| Airport | Chişinău International Airport (LUKK) |
Arrival
| Time | 2026-04-30 14:49 |
|---|---|
| Airport | Burgas Airport (LBBG) |
| Time | Latitude | Longitude | Altitude | Speed | Heading |
|---|---|---|---|---|---|
| 2026-04-30 13:15 | 46.93516 | 28.92832 | 331 ft | 0 kts | 8° |
| 2026-04-30 13:45 | 46.93503 | 28.92829 | 331 ft | 1 kts | 7° |
| 2026-04-30 13:45 | 46.93494 | 28.92828 | 331 ft | 2 kts | 343° |
| 2026-04-30 13:45 | 46.93482 | 28.92841 | 331 ft | 2 kts | 294° |
| 2026-04-30 13:46 | 46.93480 | 28.92851 | 330 ft | 1 kts | 270° |
| 2026-04-30 13:46 | 46.93480 | 28.92859 | 330 ft | 0 kts | 276° |
| 2026-04-30 13:50 | 46.93480 | 28.92849 | 330 ft | 3 kts | 276° |
| 2026-04-30 13:50 | 46.93485 | 28.92810 | 331 ft | 3 kts | 287° |
| 2026-04-30 13:51 | 46.93474 | 28.92801 | 331 ft | 3 kts | 155° |
| 2026-04-30 13:51 | 46.93471 | 28.92867 | 330 ft | 9 kts | 87° |
| 2026-04-30 13:51 | 46.93472 | 28.92963 | 328 ft | 8 kts | 96° |
| 2026-04-30 13:51 | 46.93462 | 28.93045 | 327 ft | 10 kts | 103° |
| 2026-04-30 13:52 | 46.93449 | 28.93169 | 324 ft | 13 kts | 95° |
| 2026-04-30 13:52 | 46.93438 | 28.93304 | 321 ft | 14 kts | 98° |
| 2026-04-30 13:52 | 46.93426 | 28.93449 | 319 ft | 13 kts | 97° |
| 2026-04-30 13:52 | 46.93414 | 28.93580 | 316 ft | 12 kts | 96° |
| 2026-04-30 13:53 | 46.93404 | 28.93711 | 311 ft | 15 kts | 98° |
| 2026-04-30 13:53 | 46.93396 | 28.93893 | 305 ft | 18 kts | 92° |
| 2026-04-30 13:53 | 46.93383 | 28.94079 | 302 ft | 19 kts | 97° |
| 2026-04-30 13:53 | 46.93371 | 28.94202 | 300 ft | 18 kts | 97° |
| 2026-04-30 13:54 | 46.93348 | 28.94462 | 298 ft | 21 kts | 97° |
| 2026-04-30 13:54 | 46.93326 | 28.94703 | 294 ft | 25 kts | 97° |
| 2026-04-30 13:54 | 46.93284 | 28.94913 | 288 ft | 18 kts | 133° |
| 2026-04-30 13:54 | 46.93177 | 28.95011 | 284 ft | 20 kts | 152° |
| 2026-04-30 13:55 | 46.93049 | 28.95094 | 281 ft | 18 kts | 166° |
| 2026-04-30 13:55 | 46.92978 | 28.95107 | 281 ft | 3 kts | 178° |
| 2026-04-30 13:55 | 46.92973 | 28.95107 | 281 ft | 0 kts | 178° |
| 2026-04-30 13:57 | 46.92961 | 28.95108 | 281 ft | 4 kts | 178° |
| 2026-04-30 13:57 | 46.92894 | 28.95111 | 280 ft | 14 kts | 178° |
| 2026-04-30 13:57 | 46.92839 | 28.95100 | 280 ft | 5 kts | 211° |
| 2026-04-30 13:57 | 46.92823 | 28.95055 | 280 ft | 5 kts | 262° |
| 2026-04-30 13:58 | 46.92822 | 28.95024 | 281 ft | 1 kts | 267° |
| 2026-04-30 13:58 | 46.92795 | 28.93735 | 310 ft | 131 kts | 268° |
| 2026-04-30 13:58 | 46.92759 | 28.92106 | 410 ft | 180 kts | 269° |
| 2026-04-30 13:59 | 46.92704 | 28.90279 | 1122 ft | 184 kts | 269° |
| 2026-04-30 13:59 | 46.92647 | 28.88352 | 1778 ft | 199 kts | 269° |
| 2026-04-30 13:59 | 46.92583 | 28.86222 | 2291 ft | 220 kts | 269° |
| 2026-04-30 13:59 | 46.92511 | 28.83883 | 2850 ft | 242 kts | 268° |
| 2026-04-30 14:00 | 46.92429 | 28.81288 | 3342 ft | 267 kts | 268° |
| 2026-04-30 14:00 | 46.90881 | 28.76597 | 5389 ft | 271 kts | 213° |
| 2026-04-30 14:00 | 46.89130 | 28.75726 | 6302 ft | 276 kts | 187° |
| 2026-04-30 14:01 | 46.87304 | 28.75320 | 7541 ft | 266 kts | 193° |
| 2026-04-30 14:01 | 46.85540 | 28.74540 | 8346 ft | 274 kts | 204° |
| 2026-04-30 14:01 | 46.83800 | 28.73152 | 8819 ft | 295 kts | 212° |
| 2026-04-30 14:01 | 46.82108 | 28.71578 | 9961 ft | 288 kts | 213° |
| 2026-04-30 14:02 | 46.80419 | 28.69943 | 10638 ft | 299 kts | 213° |
| 2026-04-30 14:02 | 46.78625 | 28.68209 | 10911 ft | 324 kts | 213° |
| 2026-04-30 14:02 | 46.76698 | 28.66368 | 11291 ft | 344 kts | 213° |
| 2026-04-30 14:02 | 46.74630 | 28.64400 | 11649 ft | 362 kts | 213° |
| 2026-04-30 14:03 | 46.72525 | 28.62399 | 12414 ft | 367 kts | 213° |
| 2026-04-30 14:03 | 46.70367 | 28.60352 | 13020 ft | 375 kts | 213° |
| 2026-04-30 14:03 | 46.68164 | 28.58265 | 13748 ft | 380 kts | 213° |
| 2026-04-30 14:03 | 46.65971 | 28.56189 | 14407 ft | 385 kts | 213° |
| 2026-04-30 14:04 | 46.63721 | 28.54061 | 15112 ft | 388 kts | 213° |
| 2026-04-30 14:04 | 46.61439 | 28.51905 | 15751 ft | 393 kts | 213° |
| 2026-04-30 14:04 | 46.59129 | 28.49725 | 16402 ft | 397 kts | 213° |
| 2026-04-30 14:04 | 46.56796 | 28.47526 | 17008 ft | 402 kts | 213° |
| 2026-04-30 14:05 | 46.54456 | 28.45322 | 17624 ft | 405 kts | 213° |
| 2026-04-30 14:05 | 46.52106 | 28.43111 | 18186 ft | 410 kts | 214° |
| 2026-04-30 14:05 | 46.49713 | 28.40861 | 18765 ft | 413 kts | 214° |
| 2026-04-30 14:05 | 46.47297 | 28.38593 | 19318 ft | 417 kts | 214° |
| 2026-04-30 14:06 | 46.44833 | 28.36288 | 19877 ft | 420 kts | 214° |
| 2026-04-30 14:06 | 46.40738 | 28.32468 | 20734 ft | 426 kts | 213° |
| 2026-04-30 14:07 | 46.34877 | 28.27005 | 21919 ft | 433 kts | 214° |
| 2026-04-30 14:07 | 46.32351 | 28.24650 | 22380 ft | 436 kts | 214° |
| 2026-04-30 14:07 | 46.29771 | 28.22248 | 22859 ft | 439 kts | 214° |
| 2026-04-30 14:08 | 46.25483 | 28.18264 | 23598 ft | 444 kts | 214° |
| 2026-04-30 14:08 | 46.21982 | 28.15141 | 24200 ft | 447 kts | 211° |
| 2026-04-30 14:08 | 46.16160 | 28.11895 | 25003 ft | 457 kts | 192° |
| 2026-04-30 14:09 | 46.14084 | 28.11379 | 25291 ft | 458 kts | 190° |
| 2026-04-30 14:09 | 46.09854 | 28.10449 | 25761 ft | 463 kts | 190° |
| 2026-04-30 14:09 | 46.03498 | 28.09011 | 26543 ft | 466 kts | 191° |
| 2026-04-30 14:10 | 46.00325 | 28.08281 | 26835 ft | 469 kts | 191° |
| 2026-04-30 14:10 | 45.97091 | 28.07560 | 27199 ft | 471 kts | 191° |
| 2026-04-30 14:10 | 45.93864 | 28.06842 | 27508 ft | 473 kts | 191° |
| 2026-04-30 14:10 | 45.90607 | 28.06123 | 27851 ft | 475 kts | 191° |
| 2026-04-30 14:11 | 45.88458 | 28.05649 | 28045 ft | 476 kts | 191° |
| 2026-04-30 14:11 | 45.84113 | 28.04682 | 28516 ft | 477 kts | 191° |
| 2026-04-30 14:11 | 45.81938 | 28.04203 | 28728 ft | 477 kts | 191° |
| 2026-04-30 14:11 | 45.77544 | 28.03236 | 29059 ft | 481 kts | 191° |
| 2026-04-30 14:12 | 45.74264 | 28.02511 | 29434 ft | 480 kts | 191° |
| 2026-04-30 14:12 | 45.70988 | 28.01790 | 29825 ft | 479 kts | 191° |
| 2026-04-30 14:12 | 45.67710 | 28.01076 | 30189 ft | 478 kts | 192° |
| 2026-04-30 14:12 | 45.65524 | 28.00591 | 30406 ft | 477 kts | 192° |
| 2026-04-30 14:13 | 45.61189 | 27.99615 | 30952 ft | 474 kts | 192° |
| 2026-04-30 14:13 | 45.57943 | 27.98887 | 31284 ft | 474 kts | 192° |
| 2026-04-30 14:13 | 45.55778 | 27.98404 | 31499 ft | 473 kts | 192° |
| 2026-04-30 14:13 | 45.51454 | 27.97439 | 31984 ft | 471 kts | 192° |
| 2026-04-30 14:14 | 45.48233 | 27.96713 | 32369 ft | 469 kts | 192° |
| 2026-04-30 14:14 | 45.45064 | 27.96014 | 32752 ft | 466 kts | 192° |
| 2026-04-30 14:14 | 45.41865 | 27.95310 | 33109 ft | 464 kts | 192° |
| 2026-04-30 14:14 | 45.39724 | 27.94839 | 33289 ft | 465 kts | 192° |
| 2026-04-30 14:15 | 45.35499 | 27.93907 | 33786 ft | 461 kts | 193° |
| 2026-04-30 14:15 | 45.32376 | 27.93226 | 34127 ft | 459 kts | 192° |
| 2026-04-30 14:15 | 45.30278 | 27.92771 | 34241 ft | 461 kts | 192° |
| 2026-04-30 14:15 | 45.26076 | 27.91853 | 34693 ft | 458 kts | 192° |
| 2026-04-30 14:16 | 45.23969 | 27.91392 | 34838 ft | 458 kts | 193° |
| 2026-04-30 14:16 | 45.19807 | 27.90532 | 35231 ft | 458 kts | 189° |
| 2026-04-30 14:16 | 45.17670 | 27.90383 | 35363 ft | 461 kts | 184° |
| 2026-04-30 14:16 | 45.13400 | 27.90535 | 35738 ft | 461 kts | 181° |
| 2026-04-30 14:17 | 45.10213 | 27.90712 | 35971 ft | 461 kts | 181° |
| 2026-04-30 14:17 | 45.08116 | 27.90827 | 36174 ft | 459 kts | 181° |
| 2026-04-30 14:17 | 45.04929 | 27.90990 | 36273 ft | 457 kts | 181° |
| 2026-04-30 14:17 | 45.00771 | 27.91203 | 36255 ft | 446 kts | 181° |
| 2026-04-30 14:18 | 44.98706 | 27.91305 | 36262 ft | 441 kts | 181° |
| 2026-04-30 14:18 | 44.89558 | 27.91719 | 36260 ft | 443 kts | 180° |
| 2026-04-30 14:19 | 44.80302 | 27.92128 | 36241 ft | 446 kts | 180° |
| 2026-04-30 14:20 | 44.74146 | 27.92432 | 36233 ft | 444 kts | 180° |
| 2026-04-30 14:20 | 44.64948 | 27.92863 | 36236 ft | 442 kts | 180° |
| 2026-04-30 14:21 | 44.58834 | 27.93151 | 36237 ft | 445 kts | 180° |
| 2026-04-30 14:22 | 44.49605 | 27.93574 | 36233 ft | 441 kts | 180° |
| 2026-04-30 14:22 | 44.40443 | 27.94004 | 36236 ft | 442 kts | 180° |
| 2026-04-30 14:23 | 44.28143 | 27.94583 | 36234 ft | 442 kts | 180° |
| 2026-04-30 14:24 | 44.18995 | 27.94994 | 36237 ft | 443 kts | 180° |
| 2026-04-30 14:25 | 44.06686 | 27.95587 | 36236 ft | 442 kts | 180° |
| 2026-04-30 14:26 | 43.97532 | 27.95974 | 36233 ft | 441 kts | 180° |
| 2026-04-30 14:27 | 43.88327 | 27.96481 | 36206 ft | 445 kts | 180° |
| 2026-04-30 14:27 | 43.82173 | 27.96847 | 36184 ft | 442 kts | 180° |
| 2026-04-30 14:28 | 43.73001 | 27.97380 | 36182 ft | 442 kts | 180° |
| 2026-04-30 14:28 | 43.66890 | 27.97112 | 36178 ft | 439 kts | 194° |
| 2026-04-30 14:29 | 43.61120 | 27.94821 | 35208 ft | 432 kts | 198° |
| 2026-04-30 14:29 | 43.55405 | 27.92629 | 33720 ft | 433 kts | 197° |
| 2026-04-30 14:30 | 43.46686 | 27.89465 | 31288 ft | 435 kts | 195° |
| 2026-04-30 14:31 | 43.40867 | 27.87405 | 29714 ft | 434 kts | 195° |
| 2026-04-30 14:31 | 43.35119 | 27.85375 | 28472 ft | 422 kts | 195° |
| 2026-04-30 14:31 | 43.32314 | 27.84385 | 27849 ft | 416 kts | 194° |
| 2026-04-30 14:32 | 43.26745 | 27.82427 | 26601 ft | 416 kts | 194° |
| 2026-04-30 14:32 | 43.23985 | 27.81459 | 25961 ft | 409 kts | 194° |
| 2026-04-30 14:32 | 43.21274 | 27.80508 | 25047 ft | 399 kts | 194° |
| 2026-04-30 14:33 | 43.18673 | 27.79592 | 24390 ft | 384 kts | 194° |
| 2026-04-30 14:33 | 43.13591 | 27.77807 | 23095 ft | 379 kts | 193° |
| 2026-04-30 14:33 | 43.11024 | 27.76909 | 22441 ft | 378 kts | 193° |
| 2026-04-30 14:34 | 43.08513 | 27.76035 | 21795 ft | 375 kts | 193° |
| 2026-04-30 14:34 | 43.05996 | 27.75160 | 21141 ft | 372 kts | 193° |
| 2026-04-30 14:34 | 43.03537 | 27.74305 | 20496 ft | 368 kts | 193° |
| 2026-04-30 14:34 | 43.01060 | 27.73438 | 19842 ft | 365 kts | 193° |
| 2026-04-30 14:35 | 42.96194 | 27.71735 | 18308 ft | 358 kts | 192° |
| 2026-04-30 14:35 | 42.93837 | 27.70913 | 17531 ft | 351 kts | 192° |
| 2026-04-30 14:35 | 42.91512 | 27.70105 | 16725 ft | 345 kts | 192° |
| 2026-04-30 14:36 | 42.89204 | 27.69306 | 16029 ft | 343 kts | 191° |
| 2026-04-30 14:36 | 42.86892 | 27.68509 | 15328 ft | 343 kts | 191° |
| 2026-04-30 14:36 | 42.84592 | 27.67719 | 14628 ft | 342 kts | 191° |
| 2026-04-30 14:36 | 42.82285 | 27.66926 | 13921 ft | 340 kts | 191° |
| 2026-04-30 14:37 | 42.80024 | 27.66151 | 13223 ft | 337 kts | 191° |
| 2026-04-30 14:37 | 42.77788 | 27.65384 | 12528 ft | 335 kts | 191° |
| 2026-04-30 14:37 | 42.75544 | 27.64616 | 11826 ft | 333 kts | 191° |
| 2026-04-30 14:37 | 42.73329 | 27.63858 | 11129 ft | 330 kts | 191° |
| 2026-04-30 14:38 | 42.71118 | 27.63100 | 10480 ft | 320 kts | 191° |
| 2026-04-30 14:38 | 42.69054 | 27.62388 | 10310 ft | 296 kts | 191° |
| 2026-04-30 14:38 | 42.67070 | 27.61708 | 9802 ft | 293 kts | 191° |
| 2026-04-30 14:38 | 42.65106 | 27.61039 | 9170 ft | 289 kts | 191° |
| 2026-04-30 14:39 | 42.63183 | 27.60383 | 8550 ft | 286 kts | 191° |
| 2026-04-30 14:39 | 42.61267 | 27.59729 | 7924 ft | 283 kts | 191° |
| 2026-04-30 14:39 | 42.59382 | 27.59086 | 7302 ft | 281 kts | 191° |
| 2026-04-30 14:40 | 42.55544 | 27.57782 | 6064 ft | 290 kts | 191° |
| 2026-04-30 14:40 | 42.53611 | 27.57123 | 5426 ft | 286 kts | 191° |
| 2026-04-30 14:40 | 42.51705 | 27.56473 | 4799 ft | 281 kts | 191° |
| 2026-04-30 14:40 | 42.49840 | 27.55840 | 4189 ft | 277 kts | 191° |
| 2026-04-30 14:41 | 42.48059 | 27.55054 | 3968 ft | 261 kts | 205° |
| 2026-04-30 14:41 | 42.46651 | 27.53646 | 3981 ft | 241 kts | 222° |
| 2026-04-30 14:41 | 42.45463 | 27.52049 | 4005 ft | 245 kts | 223° |
| 2026-04-30 14:41 | 42.44242 | 27.50423 | 3995 ft | 245 kts | 222° |
| 2026-04-30 14:42 | 42.43026 | 27.48814 | 3992 ft | 244 kts | 222° |
| 2026-04-30 14:42 | 42.41815 | 27.47216 | 3993 ft | 244 kts | 222° |
| 2026-04-30 14:42 | 42.40600 | 27.45616 | 3993 ft | 244 kts | 222° |
| 2026-04-30 14:42 | 42.39387 | 27.44019 | 3993 ft | 244 kts | 222° |
| 2026-04-30 14:43 | 42.38161 | 27.42407 | 3993 ft | 244 kts | 222° |
| 2026-04-30 14:43 | 42.37014 | 27.40715 | 3985 ft | 246 kts | 238° |
| 2026-04-30 14:43 | 42.36561 | 27.38525 | 3988 ft | 246 kts | 275° |
| 2026-04-30 14:43 | 42.37065 | 27.36347 | 4002 ft | 242 kts | 304° |
| 2026-04-30 14:44 | 42.38097 | 27.34603 | 3768 ft | 238 kts | 323° |
| 2026-04-30 14:44 | 42.39512 | 27.33638 | 3501 ft | 223 kts | 353° |
| 2026-04-30 14:44 | 42.40986 | 27.33637 | 3207 ft | 211 kts | 13° |
| 2026-04-30 14:44 | 42.42451 | 27.34007 | 2700 ft | 212 kts | 14° |
| 2026-04-30 14:45 | 42.43814 | 27.34415 | 2671 ft | 191 kts | 25° |
| 2026-04-30 14:45 | 42.44832 | 27.35362 | 2710 ft | 172 kts | 47° |
| 2026-04-30 14:45 | 42.45674 | 27.36527 | 2700 ft | 171 kts | 47° |
| 2026-04-30 14:45 | 42.46512 | 27.37643 | 2574 ft | 166 kts | 46° |
| 2026-04-30 14:46 | 42.47342 | 27.38744 | 2060 ft | 170 kts | 46° |
| 2026-04-30 14:46 | 42.48170 | 27.39839 | 1658 ft | 166 kts | 46° |
| 2026-04-30 14:46 | 42.48996 | 27.40931 | 1275 ft | 160 kts | 46° |
| 2026-04-30 14:46 | 42.49725 | 27.41892 | 1089 ft | 130 kts | 46° |
| 2026-04-30 14:47 | 42.50372 | 27.42748 | 1085 ft | 134 kts | 46° |
| 2026-04-30 14:47 | 42.51041 | 27.43631 | 1209 ft | 137 kts | 46° |
| 2026-04-30 14:47 | 42.51734 | 27.44526 | 1150 ft | 138 kts | 45° |
| 2026-04-30 14:47 | 42.52448 | 27.45397 | 1114 ft | 139 kts | 44° |
| 2026-04-30 14:48 | 42.53155 | 27.46284 | 903 ft | 136 kts | 47° |
| 2026-04-30 14:48 | 42.53820 | 27.47212 | 733 ft | 136 kts | 49° |
| 2026-04-30 14:48 | 42.54472 | 27.48151 | 547 ft | 136 kts | 47° |
| 2026-04-30 14:48 | 42.55154 | 27.49039 | 366 ft | 134 kts | 45° |
| 2026-04-30 14:49 | 42.55821 | 27.49918 | 229 ft | 133 kts | 47° |
| 2026-04-30 14:49 | 42.56430 | 27.50762 | 143 ft | 112 kts | 44° |
| 2026-04-30 14:49 | 42.56854 | 27.51317 | 142 ft | 55 kts | 45° |
| 2026-04-30 14:49 | 42.57090 | 27.51632 | 142 ft | 42 kts | 43° |
| 2026-04-30 14:50 | 42.57279 | 27.51943 | 142 ft | 12 kts | 88° |
| 2026-04-30 14:50 | 42.57279 | 27.52056 | 142 ft | 10 kts | 90° |
| 2026-04-30 14:51 | 42.57279 | 27.52073 | 142 ft | 0 kts | 90° |
| 2026-04-30 14:51 | 42.57279 | 27.52144 | 142 ft | 10 kts | 91° |
| 2026-04-30 14:52 | 42.57239 | 27.52229 | 142 ft | 10 kts | 155° |
| 2026-04-30 14:52 | 42.57161 | 27.52198 | 142 ft | 4 kts | 217° |
| 2026-04-30 14:52 | 42.57137 | 27.52172 | 142 ft | 3 kts | 220° |
| 2026-04-30 14:53 | 42.57100 | 27.52128 | 142 ft | 3 kts | 220° |
| 2026-04-30 14:53 | 42.57062 | 27.52085 | 142 ft | 11 kts | 220° |
| 2026-04-30 14:54 | 42.56891 | 27.51890 | 142 ft | 20 kts | 220° |
| 2026-04-30 14:54 | 42.56742 | 27.51679 | 142 ft | 12 kts | 229° |
| 2026-04-30 14:55 | 42.56561 | 27.51401 | 142 ft | 21 kts | 230° |
| 2026-04-30 14:55 | 42.56496 | 27.51300 | 142 ft | 10 kts | 226° |
| 2026-04-30 14:55 | 42.56430 | 27.51261 | 142 ft | 3 kts | 143° |
| 2026-04-30 14:56 | 42.56409 | 27.51302 | 142 ft | 2 kts | 131° |
| 2026-04-30 14:56 | 42.56401 | 27.51313 | 142 ft | 0 kts | 137° |
| 2026-04-30 14:58 | 42.56398 | 27.51316 | 142 ft | 0 kts | 137° |